createdAt,value
2019-03-20T00:00:36.184Z,101460.66
2019-03-20T00:03:15.869Z,101460.66
2019-03-20T00:05:33.422Z,101453.72
2019-03-20T00:11:25.016Z,101464.41
2019-03-20T00:13:52.931Z,101467.14
2019-03-20T00:16:39.336Z,101474.22
2019-03-20T00:19:25.821Z,101467.80
2019-03-20T00:22:12.479Z,101476.15
2019-03-20T00:24:58.908Z,101476.15
2019-03-20T00:27:26.819Z,101471.35
2019-03-20T00:30:13.260Z,101463.08
2019-03-20T00:32:59.909Z,101471.91
2019-03-20T00:35:46.392Z,101475.90
2019-03-20T00:38:33.083Z,101470.25
2019-03-20T00:41:19.581Z,101476.00
2019-03-20T00:43:47.182Z,101476.00
2019-03-20T00:46:33.626Z,101473.90
2019-03-20T00:54:07.334Z,101485.88
2019-03-20T00:56:54.019Z,101481.06
2019-03-20T00:59:40.478Z,101480.23
2019-03-20T01:02:08.607Z,101480.23
2019-03-20T01:04:38.016Z,101468.02
2019-03-20T01:07:24.463Z,101467.13
2019-03-20T01:10:10.922Z,101467.13
2019-03-20T01:12:57.309Z,101458.03
2019-03-20T01:15:43.745Z,101466.81
2019-03-20T01:21:03.772Z,101462.05
2019-03-20T01:24:02.128Z,101460.81
2019-03-20T01:34:25.836Z,101468.69
2019-03-20T01:36:53.587Z,101468.69
2019-03-20T01:39:40.038Z,101467.42
2019-03-20T01:44:59.002Z,101471.88
2019-03-20T01:47:45.420Z,101461.93
2019-03-20T01:50:32.166Z,101471.16
2019-03-20T01:53:18.537Z,101462.47
2019-03-20T01:56:05.256Z,101468.22
2019-03-20T01:58:32.920Z,101468.22
2019-03-20T02:03:52.699Z,101464.35
2019-03-20T02:06:39.127Z,101460.44
2019-03-20T02:09:25.843Z,101459.12
2019-03-20T02:11:53.630Z,101459.12
2019-03-20T02:14:21.406Z,101456.55
2019-03-20T02:17:08.101Z,101466.63
2019-03-20T02:22:28.337Z,101473.31
2019-03-20T02:24:56.076Z,101473.31
2019-03-20T02:30:15.927Z,101465.95
2019-03-20T02:35:51.768Z,101469.46
2019-03-20T02:38:36.993Z,101479.54
2019-03-20T02:41:04.742Z,101481.75
2019-03-20T02:43:51.183Z,101483.91
2019-03-20T02:46:18.926Z,101483.91
2019-03-20T02:49:05.332Z,101478.74
2019-03-20T02:51:33.056Z,101480.07
2019-03-20T02:54:19.770Z,101472.68
2019-03-20T02:57:06.173Z,101484.95
2019-03-20T02:59:52.925Z,101480.16
2019-03-20T03:04:55.723Z,101474.91
2019-03-20T03:07:42.434Z,101475.38
2019-03-20T03:10:29.611Z,101472.27
2019-03-20T03:15:58.023Z,101469.16
2019-03-20T03:18:34.090Z,101469.16
2019-03-20T03:24:09.040Z,101470.63
2019-03-20T03:26:48.502Z,101471.11
2019-03-20T03:29:25.290Z,101471.55
2019-03-20T03:34:41.197Z,101475.53
2019-03-20T03:40:02.775Z,101470.30
2019-03-20T03:45:40.545Z,101475.62
2019-03-20T03:48:27.009Z,101478.68
2019-03-20T03:51:13.671Z,101481.78
2019-03-20T03:56:33.840Z,101490.14
2019-03-20T03:59:21.797Z,101499.80
2019-03-20T04:02:08.233Z,101500.28
2019-03-20T04:07:41.437Z,101505.13
2019-03-20T04:13:14.616Z,101499.88
2019-03-20T04:16:13.151Z,101502.50
2019-03-20T04:21:23.166Z,101499.82
2019-03-20T04:24:09.993Z,101496.77
2019-03-20T04:29:29.418Z,101496.77
2019-03-20T04:34:44.138Z,101496.30
2019-03-20T04:37:30.515Z,101501.11
2019-03-20T04:40:17.263Z,101503.73
2019-03-20T04:43:03.712Z,101507.26
2019-03-20T04:45:50.366Z,101507.28
2019-03-20T04:48:36.806Z,101504.30
2019-03-20T04:51:04.629Z,101503.41
2019-03-20T04:53:51.071Z,101501.25
2019-03-20T04:56:37.456Z,101500.80
2019-03-20T04:59:23.944Z,101500.80
2019-03-20T05:04:57.142Z,101505.20
2019-03-20T05:07:43.523Z,101504.78
2019-03-20T05:10:29.957Z,101504.78
2019-03-20T05:16:02.848Z,101505.69
2019-03-20T05:18:30.714Z,101507.43
2019-03-20T05:21:17.467Z,101503.96
2019-03-20T05:26:50.314Z,101501.74
2019-03-20T05:29:18.103Z,101505.62
2019-03-20T05:34:49.777Z,101517.81
2019-03-20T05:37:25.969Z,101518.30
2019-03-20T05:42:45.915Z,101527.09
2019-03-20T05:45:13.797Z,101527.56
2019-03-20T05:48:00.208Z,101529.30
2019-03-20T05:53:19.373Z,101526.67
2019-03-20T05:58:52.309Z,101526.71
2019-03-20T06:06:49.835Z,101529.55
2019-03-20T06:09:26.023Z,101531.20
2019-03-20T06:11:53.923Z,101530.45
2019-03-20T06:17:28.585Z,101540.25
2019-03-20T06:20:15.023Z,101544.95
2019-03-20T06:23:01.569Z,101539.41
2019-03-20T06:25:48.087Z,101548.69
2019-03-20T06:28:15.818Z,101548.69
2019-03-20T06:31:02.274Z,101553.16
2019-03-20T06:33:30.508Z,101553.16
2019-03-20T06:35:58.481Z,101552.75
2019-03-20T06:38:44.828Z,101561.92
2019-03-20T06:41:12.741Z,101571.15
2019-03-20T06:43:59.140Z,101571.34
2019-03-20T06:46:45.611Z,101566.59
2019-03-20T06:49:44.339Z,101566.28
2019-03-20T06:52:01.573Z,101568.17
2019-03-20T06:54:48.028Z,101563.06
2019-03-20T06:57:17.659Z,101563.27
2019-03-20T07:05:05.454Z,101563.73
2019-03-20T07:13:31.051Z,101557.56
2019-03-20T07:16:19.385Z,101548.42
2019-03-20T07:19:06.236Z,101540.44
2019-03-20T07:24:39.196Z,101540.41
2019-03-20T07:30:12.103Z,101544.25
2019-03-20T07:32:39.799Z,101544.25
2019-03-20T07:35:26.267Z,101536.69
2019-03-20T07:38:12.709Z,101540.97
2019-03-20T07:41:11.329Z,101550.74
2019-03-20T07:43:47.203Z,101562.77
2019-03-20T07:46:33.668Z,101562.77
2019-03-20T07:49:01.539Z,101555.14
2019-03-20T07:51:32.295Z,101557.60
2019-03-20T07:54:00.037Z,101551.52
2019-03-20T07:56:27.717Z,101552.19
2019-03-20T07:59:00.397Z,101552.19
2019-03-20T08:01:28.050Z,101557.94
2019-03-20T08:03:55.783Z,101552.18
2019-03-20T08:06:23.828Z,101544.75
2019-03-20T08:08:51.559Z,101544.75
2019-03-20T08:11:19.204Z,101549.03
2019-03-20T08:13:47.443Z,101560.66
2019-03-20T08:16:15.173Z,101560.66
2019-03-20T08:18:42.892Z,101559.92
2019-03-20T08:21:10.987Z,101566.28
2019-03-20T08:23:38.745Z,101565.27
2019-03-20T08:26:06.451Z,101572.02
2019-03-20T08:28:34.606Z,101581.91
2019-03-20T08:31:03.429Z,101577.81
2019-03-20T08:33:31.154Z,101577.81
2019-03-20T08:35:59.231Z,101588.06
2019-03-20T08:38:26.895Z,101591.84
2019-03-20T08:40:54.643Z,101591.84
2019-03-20T08:43:22.870Z,101591.25
2019-03-20T08:45:50.559Z,101595.48
2019-03-20T08:48:20.109Z,101598.06
2019-03-20T08:50:52.377Z,101604.73
2019-03-20T08:53:20.351Z,101598.93
2019-03-20T08:55:48.149Z,101598.93
2019-03-20T08:58:17.502Z,101601.36
2019-03-20T09:00:45.188Z,101601.28
2019-03-20T09:03:12.948Z,101598.72
2019-03-20T09:05:43.455Z,101598.72
2019-03-20T09:08:11.128Z,101600.50
2019-03-20T09:10:41.663Z,101596.61
2019-03-20T09:13:14.038Z,101606.84
2019-03-20T09:15:41.777Z,101602.13
2019-03-20T09:18:09.471Z,101608.53
2019-03-20T09:20:37.980Z,101612.13
2019-03-20T09:23:05.763Z,101612.63
2019-03-20T09:25:35.414Z,101612.63
2019-03-20T09:28:05.809Z,101607.80
2019-03-20T09:30:33.477Z,101611.39
2019-03-20T09:33:01.226Z,101612.77
2019-03-20T09:35:30.534Z,101608.89
2019-03-20T09:37:59.286Z,101608.38
2019-03-20T09:40:26.962Z,101604.98
2019-03-20T09:42:58.110Z,101604.27
2019-03-20T09:45:25.810Z,101604.27
2019-03-20T09:47:53.479Z,101596.95
2019-03-20T09:50:21.661Z,101589.55
2019-03-20T09:52:50.147Z,101588.88
2019-03-20T09:55:20.685Z,101588.88
2019-03-20T09:57:48.733Z,101593.78
2019-03-20T10:00:16.435Z,101594.72
2019-03-20T10:02:46.950Z,101591.38
2019-03-20T10:05:14.973Z,101587.70
2019-03-20T10:07:42.691Z,101580.89
2019-03-20T10:10:11.538Z,101581.35
2019-03-20T10:12:39.611Z,101581.35
2019-03-20T10:15:08.524Z,101583.84
2019-03-20T10:17:39.454Z,101581.72
2019-03-20T10:20:07.598Z,101587.53
2019-03-20T10:22:38.902Z,101587.53
2019-03-20T10:25:06.590Z,101582.77
2019-03-20T10:27:34.644Z,101572.78
2019-03-20T10:30:02.377Z,101572.68
2019-03-20T10:32:33.118Z,101564.84
2019-03-20T10:35:01.243Z,101575.19
2019-03-20T10:37:29.099Z,101575.19
2019-03-20T10:39:56.803Z,101565.96
2019-03-20T10:42:30.005Z,101572.94
2019-03-20T10:45:00.692Z,101580.39
2019-03-20T10:47:29.011Z,101574.14
2019-03-20T10:49:56.671Z,101574.14
2019-03-20T10:52:24.367Z,101577.34
2019-03-20T10:54:52.412Z,101572.23
2019-03-20T10:57:20.146Z,101572.23
2019-03-20T10:59:48.995Z,101572.46
2019-03-20T11:02:17.036Z,101577.25
2019-03-20T11:04:44.682Z,101576.13
2019-03-20T11:07:12.379Z,101571.84
2019-03-20T11:09:40.389Z,101572.94
2019-03-20T11:12:18.285Z,101582.13
2019-03-20T11:14:47.333Z,101592.03
2019-03-20T11:17:21.795Z,101589.63
2019-03-20T11:19:49.567Z,101589.63
2019-03-20T11:22:19.324Z,101586.05
2019-03-20T11:24:47.870Z,101586.05
2019-03-20T11:27:16.043Z,101591.43
2019-03-20T11:29:43.997Z,101592.29
2019-03-20T11:32:14.278Z,101594.75
2019-03-20T11:34:43.121Z,101588.03
2019-03-20T11:37:10.905Z,101591.58
2019-03-20T11:39:40.351Z,101593.51
2019-03-20T11:42:08.273Z,101589.83
2019-03-20T11:44:36.870Z,101594.27
2019-03-20T11:47:09.199Z,101589.97
2019-03-20T11:49:39.172Z,101587.63
2019-03-20T11:52:07.271Z,101601.33
2019-03-20T11:54:37.135Z,101601.35
2019-03-20T11:57:06.552Z,101601.35
2019-03-20T11:59:37.328Z,101598.94
2019-03-20T12:02:12.348Z,101599.78
2019-03-20T12:04:39.969Z,101599.78
2019-03-20T12:07:07.735Z,101608.70
2019-03-20T12:09:41.097Z,101601.39
2019-03-20T12:12:05.329Z,101611.86
2019-03-20T12:14:32.940Z,101616.86
2019-03-20T12:17:02.854Z,101613.16
2019-03-20T12:19:44.449Z,101613.16
2019-03-20T12:22:03.954Z,101609.67
2019-03-20T12:24:32.087Z,101608.23
2019-03-20T12:26:59.840Z,101616.28
2019-03-20T12:29:27.554Z,101620.48
2019-03-20T12:31:55.724Z,101619.67
2019-03-20T12:34:25.134Z,101622.05
2019-03-20T12:36:52.820Z,101618.52
2019-03-20T12:39:32.866Z,101616.53
2019-03-20T12:42:02.240Z,101615.47
2019-03-20T12:44:30.426Z,101619.32
2019-03-20T12:46:59.947Z,101621.55
2019-03-20T12:49:27.577Z,101617.91
2019-03-20T12:51:58.192Z,101613.11
2019-03-20T12:54:25.933Z,101613.11
2019-03-20T12:56:53.630Z,101617.13
2019-03-20T12:59:24.140Z,101618.00
2019-03-20T13:01:53.238Z,101618.00
2019-03-20T13:04:28.010Z,101611.72
2019-03-20T13:06:56.207Z,101611.72
2019-03-20T13:09:23.856Z,101618.70
2019-03-20T13:11:53.796Z,101610.70
2019-03-20T13:14:23.884Z,101610.70
2019-03-20T13:16:51.473Z,101606.58
2019-03-20T13:19:19.241Z,101614.72
2019-03-20T13:21:47.702Z,101618.20
2019-03-20T13:24:16.475Z,101618.20
2019-03-20T13:26:45.575Z,101618.98
2019-03-20T13:29:16.339Z,101618.89
2019-03-20T13:31:44.073Z,101618.89
2019-03-20T13:34:19.239Z,101613.66
2019-03-20T13:36:54.443Z,101609.95
2019-03-20T13:39:23.466Z,101613.01
2019-03-20T13:41:51.577Z,101615.52
2019-03-20T13:44:19.790Z,101615.52
2019-03-20T13:46:49.147Z,101619.02
2019-03-20T13:49:17.245Z,101619.02
2019-03-20T13:51:44.912Z,101614.50
2019-03-20T13:54:15.079Z,101618.56
2019-03-20T13:56:43.190Z,101618.56
2019-03-20T13:59:10.962Z,101624.56
2019-03-20T14:01:38.633Z,101626.97
2019-03-20T14:04:06.827Z,101612.17
2019-03-20T14:06:34.531Z,101614.84
2019-03-20T14:09:03.109Z,101614.84
2019-03-20T14:11:31.195Z,101618.50
2019-03-20T14:13:58.919Z,101621.59
2019-03-20T14:16:29.170Z,101618.28
2019-03-20T14:18:57.254Z,101618.28
2019-03-20T14:21:27.180Z,101619.97
2019-03-20T14:23:55.552Z,101619.97
2019-03-20T14:26:23.696Z,101621.80
2019-03-20T14:28:51.430Z,101621.80
2019-03-20T14:31:23.809Z,101625.83
2019-03-20T14:33:51.849Z,101625.83
2019-03-20T14:36:19.579Z,101622.67
2019-03-20T14:38:47.255Z,101618.88
2019-03-20T14:41:46.071Z,101611.21
2019-03-20T14:44:22.005Z,101611.21
2019-03-20T14:47:08.438Z,101611.49
2019-03-20T14:52:29.445Z,101604.49
2019-03-20T14:54:57.257Z,101601.06
2019-03-20T14:57:43.731Z,101604.20
2019-03-20T15:00:11.435Z,101603.92
2019-03-20T15:02:57.919Z,101601.09
2019-03-20T15:08:30.899Z,101601.87
2019-03-20T15:11:10.442Z,101597.28
2019-03-20T15:13:48.635Z,101599.72
2019-03-20T15:16:35.053Z,101600.20
2019-03-20T15:19:21.482Z,101601.16
2019-03-20T15:21:49.086Z,101601.16
2019-03-20T15:24:37.797Z,101597.73
2019-03-20T15:27:08.391Z,101593.91
2019-03-20T15:29:36.156Z,101596.20
2019-03-20T15:32:03.837Z,101590.85
2019-03-20T15:34:35.771Z,101583.57
2019-03-20T15:37:03.885Z,101583.57
2019-03-20T15:39:31.632Z,101582.05
2019-03-20T15:41:59.413Z,101582.05
2019-03-20T15:44:27.505Z,101580.22
2019-03-20T15:46:55.228Z,101578.12
2019-03-20T15:49:22.944Z,101580.05
2019-03-20T15:51:51.108Z,101584.66
2019-03-20T15:54:18.837Z,101578.05
2019-03-20T15:56:46.517Z,101579.86
2019-03-20T15:59:17.430Z,101580.71
2019-03-20T16:01:46.232Z,101580.71
2019-03-20T16:04:13.974Z,101574.94
2019-03-20T16:06:42.377Z,101574.94
2019-03-20T16:09:12.589Z,101578.08
2019-03-20T16:11:40.332Z,101575.05
2019-03-20T16:14:10.891Z,101578.80
2019-03-20T16:16:38.668Z,101578.80
2019-03-20T16:19:06.370Z,101585.23
2019-03-20T16:21:35.442Z,101584.03
2019-03-20T16:24:03.232Z,101581.16
2019-03-20T16:26:30.967Z,101583.75
2019-03-20T16:28:58.888Z,101581.45
2019-03-20T16:31:26.627Z,101578.86
2019-03-20T16:33:56.546Z,101578.86
2019-03-20T16:36:26.929Z,101585.10
2019-03-20T16:38:54.553Z,101585.10
2019-03-20T16:41:24.131Z,101585.86
2019-03-20T16:43:52.268Z,101588.30
2019-03-20T16:46:30.567Z,101588.30
2019-03-20T16:48:58.281Z,101588.45
2019-03-20T16:51:26.385Z,101588.45
2019-03-20T16:53:55.253Z,101589.91
2019-03-20T16:56:25.805Z,101589.91
2019-03-20T16:58:55.994Z,101596.78
2019-03-20T17:01:23.654Z,101596.78
2019-03-20T17:03:52.985Z,101597.53
2019-03-20T17:06:26.829Z,101599.24
2019-03-20T17:08:59.266Z,101598.77
2019-03-20T17:11:37.937Z,101592.54
2019-03-20T17:13:56.676Z,101597.11
2019-03-20T17:16:30.835Z,101594.23
2019-03-20T17:19:08.476Z,101599.83
2019-03-20T17:21:36.171Z,101605.80
2019-03-20T17:24:03.857Z,101597.55
2019-03-20T17:26:31.632Z,101598.96
2019-03-20T17:29:08.700Z,101602.33
2019-03-20T17:31:29.110Z,101597.27
2019-03-20T17:33:59.367Z,101606.53
2019-03-20T17:36:45.924Z,101606.53
2019-03-20T17:39:15.298Z,101615.02
2019-03-20T17:41:43.978Z,101615.02
2019-03-20T17:44:11.710Z,101613.48
2019-03-20T17:46:39.760Z,101618.31
2019-03-20T17:49:18.085Z,101618.31
2019-03-20T17:51:45.500Z,101620.31
2019-03-20T17:54:13.625Z,101624.06
2019-03-20T17:56:41.361Z,101624.00
2019-03-20T17:59:11.000Z,101626.29
2019-03-20T18:01:41.485Z,101626.29
2019-03-20T18:04:12.027Z,101631.92
2019-03-20T18:06:39.708Z,101639.20
2019-03-20T18:09:10.901Z,101639.20
2019-03-20T18:11:47.115Z,101640.14
2019-03-20T18:14:16.611Z,101637.48
2019-03-20T18:16:44.703Z,101637.02
2019-03-20T18:19:14.221Z,101647.96
2019-03-20T18:21:47.073Z,101647.96
2019-03-20T18:24:15.546Z,101656.39
2019-03-20T18:26:44.882Z,101656.39
2019-03-20T18:29:12.559Z,101660.67
2019-03-20T18:31:46.007Z,101659.53
2019-03-20T18:34:12.559Z,101659.53
2019-03-20T18:36:40.294Z,101662.97
2019-03-20T18:39:09.614Z,101678.65
2019-03-20T18:41:39.039Z,101676.43
2019-03-20T18:44:06.793Z,101673.05
2019-03-20T18:46:48.141Z,101678.13
2019-03-20T18:49:15.912Z,101682.39
2019-03-20T18:51:47.854Z,101682.39
2019-03-20T18:54:19.495Z,101687.05
2019-03-20T18:56:50.785Z,101691.95
2019-03-20T18:59:21.864Z,101691.95
2019-03-20T19:01:53.086Z,101685.69
2019-03-20T19:04:20.755Z,101680.38
2019-03-20T19:06:50.110Z,101691.45
2019-03-20T19:09:17.850Z,101691.22
2019-03-20T19:11:45.577Z,101691.22
2019-03-20T19:14:15.904Z,101689.41
2019-03-20T19:16:43.596Z,101691.01
2019-03-20T19:19:12.859Z,101691.01
2019-03-20T19:21:43.521Z,101692.67
2019-03-20T19:24:11.183Z,101697.98
2019-03-20T19:26:41.956Z,101697.50
2019-03-20T19:29:10.430Z,101700.64
2019-03-20T19:31:43.955Z,101706.98
2019-03-20T19:34:11.662Z,101707.19
2019-03-20T19:36:39.778Z,101707.19
2019-03-20T19:39:09.207Z,101705.71
2019-03-20T19:41:38.088Z,101705.71
2019-03-20T19:44:11.452Z,101712.75
2019-03-20T19:46:41.941Z,101712.69
2019-03-20T19:49:09.914Z,101712.69
2019-03-20T19:51:39.426Z,101716.06
2019-03-20T19:54:10.271Z,101716.06
2019-03-20T19:56:38.464Z,101710.66
2019-03-20T19:59:06.232Z,101710.38
2019-03-20T20:01:40.494Z,101710.77
2019-03-20T20:04:08.618Z,101713.64
2019-03-20T20:06:36.779Z,101713.64
2019-03-20T20:09:06.133Z,101713.48
2019-03-20T20:11:37.214Z,101709.95
2019-03-20T20:14:06.833Z,101709.95
2019-03-20T20:16:39.686Z,101708.42
2019-03-20T20:19:07.765Z,101712.56
2019-03-20T20:21:35.501Z,101712.56
2019-03-20T20:24:03.208Z,101708.19
2019-03-20T20:26:31.300Z,101713.37
2019-03-20T20:29:00.840Z,101714.28
2019-03-20T20:31:28.568Z,101715.62
2019-03-20T20:34:00.503Z,101715.62
2019-03-20T20:36:30.882Z,101711.76
2019-03-20T20:38:58.632Z,101711.76
2019-03-20T20:41:29.141Z,101710.48
2019-03-20T20:43:58.612Z,101702.59
2019-03-20T20:46:29.907Z,101703.19
2019-03-20T20:49:01.101Z,101700.08
2019-03-20T20:51:30.763Z,101700.08
2019-03-20T20:53:58.438Z,101699.99
2019-03-20T20:56:26.612Z,101707.95
2019-03-20T20:58:54.261Z,101713.34
2019-03-20T21:01:23.058Z,101699.65
2019-03-20T21:03:51.211Z,101706.17
2019-03-20T21:06:18.968Z,101705.25
2019-03-20T21:08:46.706Z,101705.25
2019-03-20T21:11:15.169Z,101699.55
2019-03-20T21:13:42.924Z,101713.84
2019-03-20T21:16:10.601Z,101713.84
2019-03-20T21:18:43.058Z,101713.05
2019-03-20T21:21:14.514Z,101709.16
2019-03-20T21:23:42.178Z,101709.16
2019-03-20T21:26:10.310Z,101715.72
2019-03-20T21:28:38.220Z,101705.14
2019-03-20T21:34:39.511Z,101713.86
2019-03-20T21:37:15.248Z,101719.52
2019-03-20T21:40:01.663Z,101719.52
2019-03-20T21:42:31.374Z,101716.88
2019-03-20T21:45:17.750Z,101716.42
2019-03-20T21:50:38.238Z,101710.06
2019-03-20T21:53:24.695Z,101707.77
2019-03-20T21:56:11.170Z,101707.77
2019-03-20T21:58:39.031Z,101710.89
2019-03-20T22:01:27.145Z,101713.23
2019-03-20T22:03:54.937Z,101718.47
2019-03-20T22:06:22.943Z,101717.19
2019-03-20T22:08:50.947Z,101718.28
2019-03-20T22:11:18.697Z,101714.87
2019-03-20T22:14:05.145Z,101714.87
2019-03-20T22:16:33.218Z,101716.07
2019-03-20T22:19:21.319Z,101716.88
2019-03-20T22:24:41.025Z,101716.41
2019-03-20T22:30:00.635Z,101708.44
2019-03-20T22:32:47.104Z,101720.50
2019-03-20T22:41:25.167Z,101720.75
2019-03-20T22:46:46.166Z,101722.08
2019-03-20T22:49:32.582Z,101726.76
2019-03-20T22:52:19.056Z,101725.16
2019-03-20T22:58:04.150Z,101732.81
2019-03-20T23:00:39.988Z,101732.96
2019-03-20T23:03:26.449Z,101732.96
2019-03-20T23:08:59.309Z,101736.66
2019-03-20T23:32:51.745Z,101740.38
2019-03-20T23:35:20.013Z,101740.38
2019-03-20T23:37:47.698Z,101742.92
2019-03-20T23:40:15.498Z,101742.92
2019-03-20T23:42:43.158Z,101739.03
2019-03-20T23:45:11.396Z,101735.72
2019-03-20T23:47:39.441Z,101733.89
2019-03-20T23:50:07.171Z,101735.25
2019-03-20T23:52:35.417Z,101735.25
2019-03-20T23:55:03.071Z,101728.71
2019-03-20T23:57:30.827Z,101728.71
